sensor_id;sensor_type;location;lat;lon;timestamp;temperature;humidity
4727;DHT22;2377;51.734;8.950;2024-02-16T00:00:12;10.30;1.00
4727;DHT22;2377;51.734;8.950;2024-02-16T00:02:39;10.30;1.00
4727;DHT22;2377;51.734;8.950;2024-02-16T00:05:08;10.30;1.00
4727;DHT22;2377;51.734;8.950;2024-02-16T00:07:37;10.30;1.00
4727;DHT22;2377;51.734;8.950;2024-02-16T00:10:05;10.20;3.90
4727;DHT22;2377;51.734;8.950;2024-02-16T00:12:34;10.20;1.00
4727;DHT22;2377;51.734;8.950;2024-02-16T00:15:03;10.30;1.00
4727;DHT22;2377;51.734;8.950;2024-02-16T00:17:30;10.30;1.00
4727;DHT22;2377;51.734;8.950;2024-02-16T00:20:00;10.30;1.00
4727;DHT22;2377;51.734;8.950;2024-02-16T00:22:28;10.30;1.00
4727;DHT22;2377;51.734;8.950;2024-02-16T00:24:58;10.30;1.00
4727;DHT22;2377;51.734;8.950;2024-02-16T00:27:26;10.30;1.00
4727;DHT22;2377;51.734;8.950;2024-02-16T00:29:54;10.30;1.00
4727;DHT22;2377;51.734;8.950;2024-02-16T00:32:21;10.30;1.00
4727;DHT22;2377;51.734;8.950;2024-02-16T00:34:50;10.30;1.00
4727;DHT22;2377;51.734;8.950;2024-02-16T00:37:19;10.30;1.00
4727;DHT22;2377;51.734;8.950;2024-02-16T00:39:46;10.30;1.00
4727;DHT22;2377;51.734;8.950;2024-02-16T00:42:14;10.30;1.00
4727;DHT22;2377;51.734;8.950;2024-02-16T00:44:42;10.30;1.00
4727;DHT22;2377;51.734;8.950;2024-02-16T00:47:10;10.30;1.00
4727;DHT22;2377;51.734;8.950;2024-02-16T00:49:37;10.30;1.00
4727;DHT22;2377;51.734;8.950;2024-02-16T00:52:05;10.40;1.00
4727;DHT22;2377;51.734;8.950;2024-02-16T00:54:32;10.30;1.00
4727;DHT22;2377;51.734;8.950;2024-02-16T00:57:00;10.30;1.00
4727;DHT22;2377;51.734;8.950;2024-02-16T00:59:28;10.30;1.00
4727;DHT22;2377;51.734;8.950;2024-02-16T01:01:55;10.30;1.00
4727;DHT22;2377;51.734;8.950;2024-02-16T01:04:23;10.30;1.00
4727;DHT22;2377;51.734;8.950;2024-02-16T01:06:50;10.30;1.00
4727;DHT22;2377;51.734;8.950;2024-02-16T01:09:18;10.30;1.00
4727;DHT22;2377;51.734;8.950;2024-02-16T01:11:45;10.30;1.00
4727;DHT22;2377;51.734;8.950;2024-02-16T01:14:13;10.30;1.00
4727;DHT22;2377;51.734;8.950;2024-02-16T01:16:41;10.30;1.00
4727;DHT22;2377;51.734;8.950;2024-02-16T01:19:08;10.30;1.00
4727;DHT22;2377;51.734;8.950;2024-02-16T01:21:37;10.30;1.00
4727;DHT22;2377;51.734;8.950;2024-02-16T01:24:05;10.30;1.00
4727;DHT22;2377;51.734;8.950;2024-02-16T01:26:32;10.20;1.00
4727;DHT22;2377;51.734;8.950;2024-02-16T01:29:00;10.30;1.00
4727;DHT22;2377;51.734;8.950;2024-02-16T01:31:29;10.20;1.00
4727;DHT22;2377;51.734;8.950;2024-02-16T01:33:56;10.20;1.00
4727;DHT22;2377;51.734;8.950;2024-02-16T01:36:24;10.20;1.00
4727;DHT22;2377;51.734;8.950;2024-02-16T01:38:52;10.30;1.00
4727;DHT22;2377;51.734;8.950;2024-02-16T01:41:20;10.30;1.00
4727;DHT22;2377;51.734;8.950;2024-02-16T01:43:47;10.30;1.00
4727;DHT22;2377;51.734;8.950;2024-02-16T01:46:14;10.30;1.00
4727;DHT22;2377;51.734;8.950;2024-02-16T01:48:41;10.30;1.00
4727;DHT22;2377;51.734;8.950;2024-02-16T01:51:09;10.30;1.00
4727;DHT22;2377;51.734;8.950;2024-02-16T01:53:38;10.30;1.00
4727;DHT22;2377;51.734;8.950;2024-02-16T01:56:07;10.30;1.00
4727;DHT22;2377;51.734;8.950;2024-02-16T01:58:34;10.30;1.00
4727;DHT22;2377;51.734;8.950;2024-02-16T02:01:02;10.30;1.00
4727;DHT22;2377;51.734;8.950;2024-02-16T02:03:29;10.30;1.00
4727;DHT22;2377;51.734;8.950;2024-02-16T02:05:57;10.20;1.00
4727;DHT22;2377;51.734;8.950;2024-02-16T02:08:25;10.20;1.00
4727;DHT22;2377;51.734;8.950;2024-02-16T02:10:52;10.10;1.00
4727;DHT22;2377;51.734;8.950;2024-02-16T02:13:21;10.10;1.00
4727;DHT22;2377;51.734;8.950;2024-02-16T02:15:48;10.10;1.00
4727;DHT22;2377;51.734;8.950;2024-02-16T02:18:16;10.10;1.00
4727;DHT22;2377;51.734;8.950;2024-02-16T02:20:43;10.10;1.00
4727;DHT22;2377;51.734;8.950;2024-02-16T02:23:12;10.10;1.00
4727;DHT22;2377;51.734;8.950;2024-02-16T02:25:39;10.10;1.00
4727;DHT22;2377;51.734;8.950;2024-02-16T02:28:06;10.10;1.00
4727;DHT22;2377;51.734;8.950;2024-02-16T02:30:33;10.20;1.00
4727;DHT22;2377;51.734;8.950;2024-02-16T02:33:00;10.30;1.00
4727;DHT22;2377;51.734;8.950;2024-02-16T02:35:27;10.30;1.00
4727;DHT22;2377;51.734;8.950;2024-02-16T02:37:55;10.30;1.00
4727;DHT22;2377;51.734;8.950;2024-02-16T02:40:23;10.30;1.00
4727;DHT22;2377;51.734;8.950;2024-02-16T02:42:51;10.30;1.00
4727;DHT22;2377;51.734;8.950;2024-02-16T02:45:18;10.40;1.00
4727;DHT22;2377;51.734;8.950;2024-02-16T02:47:45;10.40;1.00
4727;DHT22;2377;51.734;8.950;2024-02-16T02:50:14;10.40;1.00
4727;DHT22;2377;51.734;8.950;2024-02-16T02:52:44;10.40;1.00
4727;DHT22;2377;51.734;8.950;2024-02-16T02:55:11;10.40;1.00
4727;DHT22;2377;51.734;8.950;2024-02-16T02:57:40;10.40;1.00
4727;DHT22;2377;51.734;8.950;2024-02-16T03:00:08;10.40;1.00
4727;DHT22;2377;51.734;8.950;2024-02-16T03:02:37;10.40;1.00
4727;DHT22;2377;51.734;8.950;2024-02-16T03:05:08;10.40;1.00
4727;DHT22;2377;51.734;8.950;2024-02-16T03:07:37;10.40;1.00
4727;DHT22;2377;51.734;8.950;2024-02-16T03:10:05;10.40;1.00
4727;DHT22;2377;51.734;8.950;2024-02-16T03:12:35;10.40;1.00
4727;DHT22;2377;51.734;8.950;2024-02-16T03:15:04;10.30;1.00
4727;DHT22;2377;51.734;8.950;2024-02-16T03:17:32;10.40;1.00
4727;DHT22;2377;51.734;8.950;2024-02-16T03:20:00;10.50;1.00
4727;DHT22;2377;51.734;8.950;2024-02-16T03:22:28;10.50;1.00
4727;DHT22;2377;51.734;8.950;2024-02-16T03:24:56;10.40;1.00
4727;DHT22;2377;51.734;8.950;2024-02-16T03:27:23;10.40;1.00
4727;DHT22;2377;51.734;8.950;2024-02-16T03:29:52;10.40;1.00
4727;DHT22;2377;51.734;8.950;2024-02-16T03:32:21;10.40;1.00
4727;DHT22;2377;51.734;8.950;2024-02-16T03:34:49;10.50;1.00
4727;DHT22;2377;51.734;8.950;2024-02-16T03:37:17;10.50;1.00
4727;DHT22;2377;51.734;8.950;2024-02-16T03:39:44;10.50;1.00
4727;DHT22;2377;51.734;8.950;2024-02-16T03:42:11;10.40;1.00
4727;DHT22;2377;51.734;8.950;2024-02-16T03:44:38;10.40;1.00
4727;DHT22;2377;51.734;8.950;2024-02-16T03:47:05;10.40;1.00
4727;DHT22;2377;51.734;8.950;2024-02-16T03:49:35;10.50;1.00
4727;DHT22;2377;51.734;8.950;2024-02-16T03:52:02;10.50;1.00
4727;DHT22;2377;51.734;8.950;2024-02-16T03:54:33;10.50;1.00
4727;DHT22;2377;51.734;8.950;2024-02-16T03:57:00;10.50;1.00
4727;DHT22;2377;51.734;8.950;2024-02-16T03:59:29;10.50;1.00
4727;DHT22;2377;51.734;8.950;2024-02-16T04:01:56;10.50;1.00
4727;DHT22;2377;51.734;8.950;2024-02-16T04:04:24;10.50;1.00
4727;DHT22;2377;51.734;8.950;2024-02-16T04:06:53;10.50;1.00
4727;DHT22;2377;51.734;8.950;2024-02-16T04:09:21;10.50;1.00
4727;DHT22;2377;51.734;8.950;2024-02-16T04:11:48;10.50;1.00
4727;DHT22;2377;51.734;8.950;2024-02-16T04:14:15;10.50;1.00
4727;DHT22;2377;51.734;8.950;2024-02-16T04:16:44;10.50;1.00
4727;DHT22;2377;51.734;8.950;2024-02-16T04:19:11;10.50;1.00
4727;DHT22;2377;51.734;8.950;2024-02-16T04:21:39;10.50;1.00
4727;DHT22;2377;51.734;8.950;2024-02-16T04:24:08;10.50;1.00
4727;DHT22;2377;51.734;8.950;2024-02-16T04:26:35;10.50;1.00
4727;DHT22;2377;51.734;8.950;2024-02-16T04:29:03;10.50;1.00
4727;DHT22;2377;51.734;8.950;2024-02-16T04:31:31;10.50;1.00
4727;DHT22;2377;51.734;8.950;2024-02-16T04:33:58;10.50;1.00
4727;DHT22;2377;51.734;8.950;2024-02-16T04:36:25;10.50;1.00
4727;DHT22;2377;51.734;8.950;2024-02-16T04:38:52;10.50;1.00
4727;DHT22;2377;51.734;8.950;2024-02-16T04:41:22;10.50;1.00
4727;DHT22;2377;51.734;8.950;2024-02-16T04:43:49;10.50;1.00
4727;DHT22;2377;51.734;8.950;2024-02-16T04:46:19;10.50;1.00
4727;DHT22;2377;51.734;8.950;2024-02-16T04:48:46;10.40;1.00
4727;DHT22;2377;51.734;8.950;2024-02-16T04:51:14;10.50;1.00
4727;DHT22;2377;51.734;8.950;2024-02-16T04:53:41;10.40;1.00
4727;DHT22;2377;51.734;8.950;2024-02-16T04:56:08;10.50;1.00
4727;DHT22;2377;51.734;8.950;2024-02-16T04:58:40;10.50;1.00
4727;DHT22;2377;51.734;8.950;2024-02-16T05:01:07;10.50;1.00
4727;DHT22;2377;51.734;8.950;2024-02-16T05:03:35;10.50;1.00
4727;DHT22;2377;51.734;8.950;2024-02-16T05:06:03;10.50;1.00
4727;DHT22;2377;51.734;8.950;2024-02-16T05:08:31;10.40;1.00
4727;DHT22;2377;51.734;8.950;2024-02-16T05:11:00;10.40;1.00
4727;DHT22;2377;51.734;8.950;2024-02-16T05:13:28;10.40;1.00
4727;DHT22;2377;51.734;8.950;2024-02-16T05:15:57;10.40;1.00
4727;DHT22;2377;51.734;8.950;2024-02-16T05:18:24;10.40;1.00
4727;DHT22;2377;51.734;8.950;2024-02-16T05:20:53;10.40;1.00
4727;DHT22;2377;51.734;8.950;2024-02-16T05:23:20;10.40;1.00
4727;DHT22;2377;51.734;8.950;2024-02-16T05:25:49;10.40;1.00
4727;DHT22;2377;51.734;8.950;2024-02-16T05:28:16;10.30;1.00
4727;DHT22;2377;51.734;8.950;2024-02-16T05:30:46;10.30;1.00
4727;DHT22;2377;51.734;8.950;2024-02-16T05:33:15;10.40;1.00
4727;DHT22;2377;51.734;8.950;2024-02-16T05:35:42;10.30;1.00
4727;DHT22;2377;51.734;8.950;2024-02-16T05:38:16;10.30;1.00
4727;DHT22;2377;51.734;8.950;2024-02-16T05:40:57;10.30;1.00
4727;DHT22;2377;51.734;8.950;2024-02-16T05:43:24;10.40;1.00
4727;DHT22;2377;51.734;8.950;2024-02-16T05:45:52;10.40;1.00
4727;DHT22;2377;51.734;8.950;2024-02-16T05:48:21;10.40;1.00
4727;DHT22;2377;51.734;8.950;2024-02-16T05:50:49;10.40;1.00
4727;DHT22;2377;51.734;8.950;2024-02-16T05:53:17;10.50;1.00
4727;DHT22;2377;51.734;8.950;2024-02-16T05:55:44;10.50;1.00
4727;DHT22;2377;51.734;8.950;2024-02-16T05:58:13;10.40;1.00
4727;DHT22;2377;51.734;8.950;2024-02-16T06:00:40;10.40;1.00
4727;DHT22;2377;51.734;8.950;2024-02-16T06:03:08;10.40;1.00
4727;DHT22;2377;51.734;8.950;2024-02-16T06:05:38;10.50;1.00
4727;DHT22;2377;51.734;8.950;2024-02-16T06:08:06;10.50;1.00
4727;DHT22;2377;51.734;8.950;2024-02-16T06:10:36;10.50;1.00
4727;DHT22;2377;51.734;8.950;2024-02-16T06:13:03;10.50;1.00
4727;DHT22;2377;51.734;8.950;2024-02-16T06:15:32;10.50;1.00
4727;DHT22;2377;51.734;8.950;2024-02-16T06:18:01;10.50;1.00
4727;DHT22;2377;51.734;8.950;2024-02-16T06:20:28;10.50;1.00
4727;DHT22;2377;51.734;8.950;2024-02-16T06:22:57;10.50;1.00
4727;DHT22;2377;51.734;8.950;2024-02-16T06:25:27;10.50;1.00
4727;DHT22;2377;51.734;8.950;2024-02-16T06:27:54;10.50;1.00
4727;DHT22;2377;51.734;8.950;2024-02-16T06:30:21;10.50;1.00
4727;DHT22;2377;51.734;8.950;2024-02-16T06:32:48;10.50;1.00
4727;DHT22;2377;51.734;8.950;2024-02-16T06:35:16;10.50;1.00
4727;DHT22;2377;51.734;8.950;2024-02-16T06:37:43;10.40;1.00
4727;DHT22;2377;51.734;8.950;2024-02-16T06:40:12;10.40;1.00
4727;DHT22;2377;51.734;8.950;2024-02-16T06:42:42;10.40;1.00
4727;DHT22;2377;51.734;8.950;2024-02-16T06:45:10;10.40;1.00
4727;DHT22;2377;51.734;8.950;2024-02-16T06:47:37;10.40;1.00
4727;DHT22;2377;51.734;8.950;2024-02-16T06:50:06;10.30;1.00
4727;DHT22;2377;51.734;8.950;2024-02-16T06:52:34;10.40;1.00
4727;DHT22;2377;51.734;8.950;2024-02-16T06:55:02;10.40;1.00
4727;DHT22;2377;51.734;8.950;2024-02-16T06:57:32;10.40;1.00
4727;DHT22;2377;51.734;8.950;2024-02-16T06:59:59;10.40;1.00
4727;DHT22;2377;51.734;8.950;2024-02-16T07:02:28;10.30;1.00
4727;DHT22;2377;51.734;8.950;2024-02-16T07:04:55;10.30;1.00
4727;DHT22;2377;51.734;8.950;2024-02-16T07:07:22;10.30;1.00
4727;DHT22;2377;51.734;8.950;2024-02-16T07:09:50;10.40;1.00
4727;DHT22;2377;51.734;8.950;2024-02-16T07:12:17;10.30;1.00
4727;DHT22;2377;51.734;8.950;2024-02-16T07:14:46;10.30;1.00
4727;DHT22;2377;51.734;8.950;2024-02-16T07:17:15;10.40;1.00
4727;DHT22;2377;51.734;8.950;2024-02-16T07:19:42;10.40;1.00
4727;DHT22;2377;51.734;8.950;2024-02-16T07:22:09;10.50;1.00
4727;DHT22;2377;51.734;8.950;2024-02-16T07:24:38;10.50;1.00
4727;DHT22;2377;51.734;8.950;2024-02-16T07:27:06;10.50;1.00
4727;DHT22;2377;51.734;8.950;2024-02-16T07:29:33;10.50;1.00
4727;DHT22;2377;51.734;8.950;2024-02-16T07:32:04;10.50;1.00
4727;DHT22;2377;51.734;8.950;2024-02-16T07:34:32;10.50;1.00
4727;DHT22;2377;51.734;8.950;2024-02-16T07:36:59;10.50;1.00
4727;DHT22;2377;51.734;8.950;2024-02-16T07:39:26;10.50;1.00
4727;DHT22;2377;51.734;8.950;2024-02-16T07:41:59;10.50;1.00
4727;DHT22;2377;51.734;8.950;2024-02-16T07:44:27;10.60;1.00
4727;DHT22;2377;51.734;8.950;2024-02-16T07:46:56;10.60;1.00
4727;DHT22;2377;51.734;8.950;2024-02-16T07:49:25;10.70;1.00
4727;DHT22;2377;51.734;8.950;2024-02-16T07:51:52;10.70;1.00
4727;DHT22;2377;51.734;8.950;2024-02-16T07:54:20;10.80;1.00
4727;DHT22;2377;51.734;8.950;2024-02-16T07:56:48;10.80;1.00
4727;DHT22;2377;51.734;8.950;2024-02-16T07:59:15;10.80;1.00
4727;DHT22;2377;51.734;8.950;2024-02-16T08:01:44;10.80;1.00
4727;DHT22;2377;51.734;8.950;2024-02-16T08:04:14;10.90;1.00
4727;DHT22;2377;51.734;8.950;2024-02-16T08:06:42;11.00;1.00
4727;DHT22;2377;51.734;8.950;2024-02-16T08:09:10;11.00;1.00
4727;DHT22;2377;51.734;8.950;2024-02-16T08:11:38;11.00;1.00
4727;DHT22;2377;51.734;8.950;2024-02-16T08:14:05;11.00;1.00
4727;DHT22;2377;51.734;8.950;2024-02-16T08:16:34;11.00;1.00
4727;DHT22;2377;51.734;8.950;2024-02-16T08:19:01;11.00;1.00
4727;DHT22;2377;51.734;8.950;2024-02-16T08:21:29;11.10;1.00
4727;DHT22;2377;51.734;8.950;2024-02-16T08:23:58;11.10;1.00
4727;DHT22;2377;51.734;8.950;2024-02-16T08:28:53;11.10;1.00
4727;DHT22;2377;51.734;8.950;2024-02-16T08:31:22;11.20;1.00
4727;DHT22;2377;51.734;8.950;2024-02-16T08:33:50;11.20;1.00
4727;DHT22;2377;51.734;8.950;2024-02-16T08:36:18;11.20;1.00
4727;DHT22;2377;51.734;8.950;2024-02-16T08:38:47;11.30;1.00
4727;DHT22;2377;51.734;8.950;2024-02-16T08:41:18;11.30;1.00
4727;DHT22;2377;51.734;8.950;2024-02-16T08:43:47;11.30;1.00
4727;DHT22;2377;51.734;8.950;2024-02-16T08:46:16;11.30;1.00
4727;DHT22;2377;51.734;8.950;2024-02-16T08:48:44;11.40;1.00
4727;DHT22;2377;51.734;8.950;2024-02-16T08:51:12;11.50;1.00
4727;DHT22;2377;51.734;8.950;2024-02-16T08:53:41;11.50;1.00
4727;DHT22;2377;51.734;8.950;2024-02-16T08:56:10;11.60;1.00
4727;DHT22;2377;51.734;8.950;2024-02-16T08:58:41;11.60;1.00
4727;DHT22;2377;51.734;8.950;2024-02-16T09:01:09;11.60;1.00
4727;DHT22;2377;51.734;8.950;2024-02-16T09:03:44;11.70;1.00
4727;DHT22;2377;51.734;8.950;2024-02-16T09:06:21;11.70;1.00
4727;DHT22;2377;51.734;8.950;2024-02-16T09:08:49;11.70;1.00
4727;DHT22;2377;51.734;8.950;2024-02-16T09:11:18;11.70;1.00
4727;DHT22;2377;51.734;8.950;2024-02-16T09:13:47;11.70;1.00
4727;DHT22;2377;51.734;8.950;2024-02-16T09:16:15;11.80;1.00
4727;DHT22;2377;51.734;8.950;2024-02-16T09:18:47;11.90;1.00
4727;DHT22;2377;51.734;8.950;2024-02-16T09:21:14;12.00;1.00
4727;DHT22;2377;51.734;8.950;2024-02-16T09:23:42;12.10;1.00
4727;DHT22;2377;51.734;8.950;2024-02-16T09:26:15;12.10;1.00
4727;DHT22;2377;51.734;8.950;2024-02-16T09:28:43;12.10;1.00
4727;DHT22;2377;51.734;8.950;2024-02-16T09:31:15;12.20;1.00
4727;DHT22;2377;51.734;8.950;2024-02-16T09:33:45;12.20;1.00
4727;DHT22;2377;51.734;8.950;2024-02-16T09:36:14;12.20;1.00
4727;DHT22;2377;51.734;8.950;2024-02-16T09:38:41;12.20;1.00
4727;DHT22;2377;51.734;8.950;2024-02-16T09:41:13;12.30;1.00
4727;DHT22;2377;51.734;8.950;2024-02-16T09:43:41;12.30;1.00
4727;DHT22;2377;51.734;8.950;2024-02-16T09:46:11;12.30;1.00
4727;DHT22;2377;51.734;8.950;2024-02-16T09:48:48;12.30;1.00
4727;DHT22;2377;51.734;8.950;2024-02-16T09:51:20;12.40;1.00
4727;DHT22;2377;51.734;8.950;2024-02-16T09:54:03;12.40;1.00
4727;DHT22;2377;51.734;8.950;2024-02-16T09:56:33;12.40;1.00
4727;DHT22;2377;51.734;8.950;2024-02-16T09:59:02;12.50;1.00
4727;DHT22;2377;51.734;8.950;2024-02-16T10:01:29;12.40;1.00
4727;DHT22;2377;51.734;8.950;2024-02-16T10:04:05;12.40;1.00
4727;DHT22;2377;51.734;8.950;2024-02-16T10:06:46;12.50;1.00
4727;DHT22;2377;51.734;8.950;2024-02-16T10:09:23;12.40;1.00
4727;DHT22;2377;51.734;8.950;2024-02-16T10:11:51;12.50;1.00
4727;DHT22;2377;51.734;8.950;2024-02-16T10:14:19;12.50;1.00
4727;DHT22;2377;51.734;8.950;2024-02-16T10:16:58;12.50;1.00
4727;DHT22;2377;51.734;8.950;2024-02-16T10:19:30;12.50;1.00
4727;DHT22;2377;51.734;8.950;2024-02-16T10:22:07;12.50;1.00
4727;DHT22;2377;51.734;8.950;2024-02-16T10:24:36;12.50;1.00
4727;DHT22;2377;51.734;8.950;2024-02-16T10:27:04;12.50;1.00
4727;DHT22;2377;51.734;8.950;2024-02-16T10:29:32;12.50;1.00
4727;DHT22;2377;51.734;8.950;2024-02-16T10:32:02;12.50;1.00
4727;DHT22;2377;51.734;8.950;2024-02-16T10:34:33;12.50;1.00
4727;DHT22;2377;51.734;8.950;2024-02-16T10:37:05;12.50;1.00
4727;DHT22;2377;51.734;8.950;2024-02-16T10:39:36;12.60;1.00
4727;DHT22;2377;51.734;8.950;2024-02-16T10:42:15;12.60;1.00
4727;DHT22;2377;51.734;8.950;2024-02-16T10:44:46;12.60;1.00
4727;DHT22;2377;51.734;8.950;2024-02-16T10:47:15;12.60;1.00
4727;DHT22;2377;51.734;8.950;2024-02-16T10:49:44;12.60;1.00
4727;DHT22;2377;51.734;8.950;2024-02-16T10:52:17;12.70;1.00
4727;DHT22;2377;51.734;8.950;2024-02-16T10:54:50;12.70;1.00
4727;DHT22;2377;51.734;8.950;2024-02-16T10:57:23;12.80;1.00
4727;DHT22;2377;51.734;8.950;2024-02-16T10:59:53;12.80;1.00
4727;DHT22;2377;51.734;8.950;2024-02-16T11:02:21;12.80;1.00
4727;DHT22;2377;51.734;8.950;2024-02-16T11:04:52;12.80;1.00
4727;DHT22;2377;51.734;8.950;2024-02-16T11:07:20;12.90;1.00
4727;DHT22;2377;51.734;8.950;2024-02-16T11:09:48;12.90;1.00
4727;DHT22;2377;51.734;8.950;2024-02-16T11:12:19;12.90;1.00
4727;DHT22;2377;51.734;8.950;2024-02-16T11:14:51;13.00;1.00
4727;DHT22;2377;51.734;8.950;2024-02-16T11:17:24;13.00;1.00
4727;DHT22;2377;51.734;8.950;2024-02-16T11:19:54;13.00;1.00
4727;DHT22;2377;51.734;8.950;2024-02-16T11:22:27;13.00;1.00
4727;DHT22;2377;51.734;8.950;2024-02-16T11:24:58;13.00;1.00
4727;DHT22;2377;51.734;8.950;2024-02-16T11:27:31;13.00;1.00
4727;DHT22;2377;51.734;8.950;2024-02-16T11:29:59;13.00;1.00
4727;DHT22;2377;51.734;8.950;2024-02-16T11:32:36;13.10;1.00
4727;DHT22;2377;51.734;8.950;2024-02-16T11:35:08;13.10;1.00
4727;DHT22;2377;51.734;8.950;2024-02-16T11:37:38;13.20;1.00
4727;DHT22;2377;51.734;8.950;2024-02-16T11:40:07;13.20;1.00
4727;DHT22;2377;51.734;8.950;2024-02-16T11:42:43;13.30;1.00
4727;DHT22;2377;51.734;8.950;2024-02-16T11:45:13;13.30;1.00
4727;DHT22;2377;51.734;8.950;2024-02-16T11:47:44;13.40;1.00
4727;DHT22;2377;51.734;8.950;2024-02-16T11:50:17;13.40;1.00
4727;DHT22;2377;51.734;8.950;2024-02-16T11:52:47;13.40;1.00
4727;DHT22;2377;51.734;8.950;2024-02-16T11:55:19;13.40;1.00
4727;DHT22;2377;51.734;8.950;2024-02-16T11:57:47;13.40;1.00
4727;DHT22;2377;51.734;8.950;2024-02-16T12:00:17;13.30;1.00
4727;DHT22;2377;51.734;8.950;2024-02-16T12:02:46;13.30;1.00
4727;DHT22;2377;51.734;8.950;2024-02-16T12:05:15;13.30;1.00
4727;DHT22;2377;51.734;8.950;2024-02-16T12:07:46;13.30;1.00
4727;DHT22;2377;51.734;8.950;2024-02-16T12:10:13;13.40;1.00
4727;DHT22;2377;51.734;8.950;2024-02-16T12:12:42;13.40;1.00
4727;DHT22;2377;51.734;8.950;2024-02-16T12:15:10;13.40;1.00
4727;DHT22;2377;51.734;8.950;2024-02-16T12:17:39;13.30;1.00
4727;DHT22;2377;51.734;8.950;2024-02-16T12:20:12;13.30;1.00
4727;DHT22;2377;51.734;8.950;2024-02-16T12:22:43;13.30;1.00
4727;DHT22;2377;51.734;8.950;2024-02-16T12:25:11;13.30;1.00
4727;DHT22;2377;51.734;8.950;2024-02-16T12:27:42;13.30;1.00
4727;DHT22;2377;51.734;8.950;2024-02-16T12:30:10;13.30;1.00
4727;DHT22;2377;51.734;8.950;2024-02-16T12:32:43;13.30;1.00
4727;DHT22;2377;51.734;8.950;2024-02-16T12:35:10;13.20;1.00
4727;DHT22;2377;51.734;8.950;2024-02-16T12:37:38;13.20;1.00
4727;DHT22;2377;51.734;8.950;2024-02-16T12:40:08;13.20;1.00
4727;DHT22;2377;51.734;8.950;2024-02-16T12:42:36;13.20;1.00
4727;DHT22;2377;51.734;8.950;2024-02-16T12:45:04;13.20;1.00
4727;DHT22;2377;51.734;8.950;2024-02-16T12:47:32;13.10;1.00
4727;DHT22;2377;51.734;8.950;2024-02-16T12:49:59;13.10;1.00
4727;DHT22;2377;51.734;8.950;2024-02-16T12:52:34;13.10;1.00
4727;DHT22;2377;51.734;8.950;2024-02-16T12:55:08;13.10;1.00
4727;DHT22;2377;51.734;8.950;2024-02-16T12:57:36;13.10;1.00
4727;DHT22;2377;51.734;8.950;2024-02-16T13:00:08;13.10;1.00
4727;DHT22;2377;51.734;8.950;2024-02-16T13:02:37;13.20;1.00
4727;DHT22;2377;51.734;8.950;2024-02-16T13:05:05;13.20;1.00
4727;DHT22;2377;51.734;8.950;2024-02-16T13:07:40;13.20;1.00
4727;DHT22;2377;51.734;8.950;2024-02-16T13:10:14;13.30;1.00
4727;DHT22;2377;51.734;8.950;2024-02-16T13:12:43;13.20;1.00
4727;DHT22;2377;51.734;8.950;2024-02-16T13:15:13;13.20;1.00
4727;DHT22;2377;51.734;8.950;2024-02-16T13:17:40;13.10;1.00
4727;DHT22;2377;51.734;8.950;2024-02-16T13:20:11;13.20;1.00
4727;DHT22;2377;51.734;8.950;2024-02-16T13:22:39;13.30;1.00
4727;DHT22;2377;51.734;8.950;2024-02-16T13:25:09;13.30;1.00
4727;DHT22;2377;51.734;8.950;2024-02-16T13:27:37;13.30;1.00
4727;DHT22;2377;51.734;8.950;2024-02-16T13:30:07;13.30;1.00
4727;DHT22;2377;51.734;8.950;2024-02-16T13:32:35;13.30;1.00
4727;DHT22;2377;51.734;8.950;2024-02-16T13:35:06;13.30;1.00
4727;DHT22;2377;51.734;8.950;2024-02-16T13:37:34;13.30;1.00
4727;DHT22;2377;51.734;8.950;2024-02-16T13:40:05;13.30;1.00
4727;DHT22;2377;51.734;8.950;2024-02-16T13:42:38;13.30;1.00
4727;DHT22;2377;51.734;8.950;2024-02-16T13:45:07;13.20;1.00
4727;DHT22;2377;51.734;8.950;2024-02-16T13:47:38;13.20;1.00
4727;DHT22;2377;51.734;8.950;2024-02-16T13:50:07;13.20;1.00
4727;DHT22;2377;51.734;8.950;2024-02-16T13:52:40;13.10;1.00
4727;DHT22;2377;51.734;8.950;2024-02-16T13:55:11;13.10;1.00
4727;DHT22;2377;51.734;8.950;2024-02-16T13:57:41;13.10;1.00
4727;DHT22;2377;51.734;8.950;2024-02-16T14:00:16;13.10;1.00
4727;DHT22;2377;51.734;8.950;2024-02-16T14:02:47;13.10;1.00
4727;DHT22;2377;51.734;8.950;2024-02-16T14:05:15;13.10;1.00
4727;DHT22;2377;51.734;8.950;2024-02-16T14:07:44;13.10;1.00
4727;DHT22;2377;51.734;8.950;2024-02-16T14:10:12;13.10;1.00
4727;DHT22;2377;51.734;8.950;2024-02-16T14:12:41;13.10;1.00
4727;DHT22;2377;51.734;8.950;2024-02-16T14:15:12;13.10;1.00
4727;DHT22;2377;51.734;8.950;2024-02-16T14:17:43;13.10;1.00
4727;DHT22;2377;51.734;8.950;2024-02-16T14:20:13;13.10;1.00
4727;DHT22;2377;51.734;8.950;2024-02-16T14:22:40;13.10;1.00
4727;DHT22;2377;51.734;8.950;2024-02-16T14:25:10;13.10;1.00
4727;DHT22;2377;51.734;8.950;2024-02-16T14:27:40;13.00;1.00
4727;DHT22;2377;51.734;8.950;2024-02-16T14:30:16;13.00;1.00
4727;DHT22;2377;51.734;8.950;2024-02-16T14:32:45;13.10;1.00
4727;DHT22;2377;51.734;8.950;2024-02-16T14:35:14;13.00;1.00
4727;DHT22;2377;51.734;8.950;2024-02-16T14:37:44;13.00;1.00
4727;DHT22;2377;51.734;8.950;2024-02-16T14:40:21;13.00;1.00
4727;DHT22;2377;51.734;8.950;2024-02-16T14:42:53;13.00;1.00
4727;DHT22;2377;51.734;8.950;2024-02-16T14:45:20;13.00;1.00
4727;DHT22;2377;51.734;8.950;2024-02-16T14:47:50;13.00;1.00
4727;DHT22;2377;51.734;8.950;2024-02-16T14:50:19;12.90;1.00
4727;DHT22;2377;51.734;8.950;2024-02-16T14:52:48;12.90;1.00
4727;DHT22;2377;51.734;8.950;2024-02-16T14:55:15;12.90;1.00
4727;DHT22;2377;51.734;8.950;2024-02-16T14:57:43;13.00;1.00
4727;DHT22;2377;51.734;8.950;2024-02-16T15:00:14;12.90;1.00
4727;DHT22;2377;51.734;8.950;2024-02-16T15:02:42;13.00;1.00
4727;DHT22;2377;51.734;8.950;2024-02-16T15:05:09;12.90;1.00
4727;DHT22;2377;51.734;8.950;2024-02-16T15:07:38;12.90;1.00
4727;DHT22;2377;51.734;8.950;2024-02-16T15:10:06;12.90;1.00
4727;DHT22;2377;51.734;8.950;2024-02-16T15:12:38;12.90;1.00
4727;DHT22;2377;51.734;8.950;2024-02-16T15:15:09;12.80;1.00
4727;DHT22;2377;51.734;8.950;2024-02-16T15:17:49;12.80;1.00
4727;DHT22;2377;51.734;8.950;2024-02-16T15:20:16;12.80;3.60
4727;DHT22;2377;51.734;8.950;2024-02-16T15:22:44;12.80;21.00
4727;DHT22;2377;51.734;8.950;2024-02-16T15:25:11;12.80;22.60
4727;DHT22;2377;51.734;8.950;2024-02-16T15:27:39;12.70;28.30
4727;DHT22;2377;51.734;8.950;2024-02-16T15:30:07;12.70;40.00
4727;DHT22;2377;51.734;8.950;2024-02-16T15:32:38;12.70;37.10
4727;DHT22;2377;51.734;8.950;2024-02-16T15:35:10;12.60;61.90
4727;DHT22;2377;51.734;8.950;2024-02-16T15:37:37;12.60;81.70
4727;DHT22;2377;51.734;8.950;2024-02-16T15:40:08;12.60;91.90
4727;DHT22;2377;51.734;8.950;2024-02-16T15:42:39;12.50;87.90
4727;DHT22;2377;51.734;8.950;2024-02-16T15:45:09;12.50;85.20
4727;DHT22;2377;51.734;8.950;2024-02-16T15:47:37;12.60;89.80
4727;DHT22;2377;51.734;8.950;2024-02-16T15:50:09;12.50;97.80
4727;DHT22;2377;51.734;8.950;2024-02-16T15:52:51;12.60;82.40
4727;DHT22;2377;51.734;8.950;2024-02-16T15:55:22;12.60;88.20
4727;DHT22;2377;51.734;8.950;2024-02-16T15:57:49;12.50;95.80
4727;DHT22;2377;51.734;8.950;2024-02-16T16:00:20;12.50;99.90
4727;DHT22;2377;51.734;8.950;2024-02-16T16:02:50;12.50;81.50
4727;DHT22;2377;51.734;8.950;2024-02-16T16:05:19;12.50;94.00
4727;DHT22;2377;51.734;8.950;2024-02-16T16:07:46;12.50;96.60
4727;DHT22;2377;51.734;8.950;2024-02-16T16:10:17;12.50;92.70
4727;DHT22;2377;51.734;8.950;2024-02-16T16:12:45;12.50;89.00
4727;DHT22;2377;51.734;8.950;2024-02-16T16:15:15;12.50;96.90
4727;DHT22;2377;51.734;8.950;2024-02-16T16:17:43;12.50;96.80
4727;DHT22;2377;51.734;8.950;2024-02-16T16:20:14;12.50;99.90
4727;DHT22;2377;51.734;8.950;2024-02-16T16:22:44;12.50;99.90
4727;DHT22;2377;51.734;8.950;2024-02-16T16:25:11;12.40;99.90
4727;DHT22;2377;51.734;8.950;2024-02-16T16:27:45;12.40;99.90
4727;DHT22;2377;51.734;8.950;2024-02-16T16:30:14;12.40;99.90